createdAt,value
2022-10-08T00:01:22.341Z,60.80
2022-10-08T00:04:29.986Z,60.70
2022-10-08T00:07:37.420Z,60.70
2022-10-08T00:10:44.858Z,60.70
2022-10-08T00:13:53.555Z,60.60
2022-10-08T00:17:03.674Z,60.60
2022-10-08T00:20:11.842Z,60.50
2022-10-08T00:23:19.239Z,60.50
2022-10-08T00:26:28.317Z,60.50
2022-10-08T00:29:35.852Z,60.50
2022-10-08T00:32:46.231Z,60.40
2022-10-08T00:35:54.031Z,60.40
2022-10-08T00:39:02.146Z,60.40
2022-10-08T00:42:09.696Z,60.40
2022-10-08T00:45:17.428Z,60.40
2022-10-08T00:48:27.649Z,60.40
2022-10-08T00:51:37.380Z,60.30
2022-10-08T00:54:44.966Z,60.30
2022-10-08T00:57:52.657Z,60.30
2022-10-08T01:01:01.605Z,60.30
2022-10-08T01:04:13.071Z,60.30
2022-10-08T01:07:28.199Z,60.20
2022-10-08T01:10:44.420Z,60.20
2022-10-08T01:13:59.753Z,60.20
2022-10-08T01:17:11.869Z,60.20
2022-10-08T01:20:34.319Z,60.10
2022-10-08T01:24:06.031Z,60.10
2022-10-08T01:27:23.968Z,60.20
2022-10-08T01:30:32.701Z,60.10
2022-10-08T01:33:46.719Z,60.10
2022-10-08T01:36:55.957Z,60.00
2022-10-08T01:40:06.297Z,60.00
2022-10-08T01:43:19.648Z,59.90
2022-10-08T01:46:32.129Z,59.90
2022-10-08T01:49:44.666Z,59.80
2022-10-08T01:52:55.982Z,59.80
2022-10-08T01:56:07.138Z,59.80
2022-10-08T01:59:23.147Z,59.80
2022-10-08T02:02:30.842Z,59.80
2022-10-08T02:05:41.229Z,59.70
2022-10-08T02:08:48.668Z,59.70
2022-10-08T02:11:56.341Z,59.70
2022-10-08T02:15:08.611Z,59.60
2022-10-08T02:18:20.102Z,59.60
2022-10-08T02:21:29.888Z,59.50
2022-10-08T02:24:43.397Z,59.50
2022-10-08T02:27:58.149Z,59.60
2022-10-08T02:31:13.799Z,59.60
2022-10-08T02:34:26.929Z,59.60
2022-10-08T02:37:41.606Z,59.50
2022-10-08T02:40:54.039Z,59.50
2022-10-08T02:44:06.809Z,59.50
2022-10-08T02:47:20.411Z,59.40
2022-10-08T02:50:30.820Z,59.40
2022-10-08T02:53:41.228Z,59.40
2022-10-08T02:56:54.454Z,59.30
2022-10-08T03:00:03.053Z,59.40
2022-10-08T03:03:17.628Z,59.40
2022-10-08T03:06:25.437Z,59.40
2022-10-08T03:09:37.723Z,59.30
2022-10-08T03:12:45.713Z,59.30
2022-10-08T03:15:56.346Z,59.30
2022-10-08T03:19:07.661Z,59.30
2022-10-08T03:22:15.068Z,59.30
2022-10-08T03:25:22.485Z,59.30
2022-10-08T03:28:29.881Z,59.30
2022-10-08T03:31:37.395Z,59.30
2022-10-08T03:34:47.400Z,59.30
2022-10-08T03:37:55.147Z,59.20
2022-10-08T03:41:02.912Z,59.20
2022-10-08T03:44:12.695Z,59.30
2022-10-08T03:47:19.929Z,59.30
2022-10-08T03:50:30.388Z,59.30
2022-10-08T03:53:39.911Z,59.20
2022-10-08T03:56:47.330Z,59.20
2022-10-08T03:59:54.713Z,59.10
2022-10-08T04:03:02.248Z,59.10
2022-10-08T04:06:12.985Z,59.10
2022-10-08T04:09:20.428Z,59.10
2022-10-08T04:12:27.775Z,59.10
2022-10-08T04:15:35.011Z,59.10
2022-10-08T04:18:42.343Z,59.10
2022-10-08T04:21:52.386Z,59.10
2022-10-08T04:24:59.484Z,59.10
2022-10-08T04:28:07.835Z,59.10
2022-10-08T04:31:18.438Z,59.20
2022-10-08T04:34:25.851Z,59.30
2022-10-08T04:37:35.893Z,59.20
2022-10-08T04:40:43.302Z,59.20
2022-10-08T04:43:51.293Z,59.20
2022-10-08T04:47:01.601Z,59.20
2022-10-08T04:50:09.720Z,59.20
2022-10-08T04:53:19.712Z,59.10
2022-10-08T04:56:27.740Z,59.10
2022-10-08T04:59:35.274Z,59.20
2022-10-08T05:02:42.623Z,59.20
2022-10-08T05:05:50.119Z,59.20
2022-10-08T05:09:03.376Z,59.10
2022-10-08T05:12:10.926Z,59.10
2022-10-08T05:15:18.568Z,59.00
2022-10-08T05:18:25.859Z,59.00
2022-10-08T05:21:35.190Z,59.00
2022-10-08T05:24:45.308Z,58.90
2022-10-08T05:27:52.668Z,58.90
2022-10-08T05:31:03.392Z,58.90
2022-10-08T05:34:10.736Z,59.00
2022-10-08T05:37:17.965Z,59.00
2022-10-08T05:40:29.865Z,59.00
2022-10-08T05:43:37.175Z,59.00
2022-10-08T05:46:44.722Z,58.90
2022-10-08T05:49:52.172Z,59.00
2022-10-08T05:52:59.537Z,59.00
2022-10-08T05:56:11.735Z,58.90
2022-10-08T05:59:21.242Z,58.90
2022-10-08T06:02:28.756Z,58.90
2022-10-08T06:05:36.128Z,58.90
2022-10-08T06:08:43.758Z,59.00
2022-10-08T06:11:54.064Z,58.90
2022-10-08T06:15:01.459Z,58.90
2022-10-08T06:18:08.928Z,59.00
2022-10-08T06:21:18.165Z,58.90
2022-10-08T06:24:25.409Z,58.90
2022-10-08T06:27:35.623Z,58.90
2022-10-08T06:30:43.792Z,58.90
2022-10-08T06:33:51.471Z,59.00
2022-10-08T06:36:58.719Z,58.90
2022-10-08T06:40:06.111Z,58.80
2022-10-08T06:43:18.997Z,58.80
2022-10-08T06:46:26.383Z,58.80
2022-10-08T06:49:34.202Z,58.80
2022-10-08T06:52:41.527Z,58.80
2022-10-08T06:55:48.693Z,58.70
2022-10-08T06:58:58.931Z,58.80
2022-10-08T07:02:06.562Z,58.80
2022-10-08T07:05:14.194Z,58.80
2022-10-08T07:08:21.550Z,58.80
2022-10-08T07:11:30.442Z,58.80
2022-10-08T07:14:40.564Z,58.90
2022-10-08T07:17:47.653Z,58.90
2022-10-08T07:20:58.869Z,58.90
2022-10-08T07:24:10.917Z,59.10
2022-10-08T07:27:21.124Z,59.20
2022-10-08T07:30:29.307Z,59.30
2022-10-08T07:33:37.168Z,59.40
2022-10-08T07:36:44.992Z,59.50
2022-10-08T07:39:52.423Z,59.60
2022-10-08T07:42:59.882Z,59.60
2022-10-08T07:46:12.565Z,59.70
2022-10-08T07:49:20.966Z,59.90
2022-10-08T07:52:28.544Z,60.20
2022-10-08T07:55:35.820Z,60.20
2022-10-08T07:58:44.463Z,60.30
2022-10-08T08:01:54.620Z,60.50
2022-10-08T08:05:02.101Z,60.60
2022-10-08T08:08:09.491Z,60.80
2022-10-08T08:11:19.149Z,60.90
2022-10-08T08:14:26.715Z,61.00
2022-10-08T08:17:37.989Z,60.80
2022-10-08T08:20:45.358Z,61.00
2022-10-08T08:23:55.065Z,61.00
2022-10-08T08:27:02.294Z,61.30
2022-10-08T08:30:10.736Z,61.50
2022-10-08T08:33:21.074Z,61.50
2022-10-08T08:36:30.323Z,61.60
2022-10-08T08:39:38.216Z,61.60
2022-10-08T08:42:54.328Z,61.80
2022-10-08T08:46:01.914Z,61.70
2022-10-08T08:49:22.985Z,61.70
2022-10-08T08:52:34.308Z,61.70
2022-10-08T08:55:44.107Z,62.10
2022-10-08T08:58:58.765Z,61.80
2022-10-08T09:02:16.499Z,62.00
2022-10-08T09:05:32.776Z,62.10
2022-10-08T09:08:58.231Z,62.00
2022-10-08T09:12:20.995Z,61.80
2022-10-08T09:15:36.505Z,61.60
2022-10-08T09:18:51.771Z,61.60
2022-10-08T09:22:03.893Z,61.70
2022-10-08T09:25:24.730Z,61.70
2022-10-08T09:28:49.080Z,61.50
2022-10-08T09:32:01.954Z,61.40
2022-10-08T09:35:26.282Z,61.40
2022-10-08T09:38:41.459Z,61.40
2022-10-08T09:41:50.217Z,61.40
2022-10-08T09:45:04.064Z,61.20
2022-10-08T09:48:26.694Z,61.00
2022-10-08T09:51:34.173Z,60.90
2022-10-08T09:54:51.560Z,61.10
2022-10-08T09:58:03.758Z,61.30
2022-10-08T10:01:17.840Z,61.30
2022-10-08T10:04:34.109Z,61.30
2022-10-08T10:07:44.144Z,61.20
2022-10-08T10:10:54.075Z,61.30
2022-10-08T10:14:07.923Z,61.30
2022-10-08T10:17:20.578Z,61.60
2022-10-08T10:20:32.438Z,61.60
2022-10-08T10:23:44.698Z,61.50
2022-10-08T10:26:59.334Z,61.60
2022-10-08T10:30:19.012Z,61.60
2022-10-08T10:33:31.460Z,61.60
2022-10-08T10:36:44.318Z,61.70
2022-10-08T10:39:58.593Z,61.70
2022-10-08T10:43:31.160Z,61.70
2022-10-08T10:46:42.773Z,61.60
2022-10-08T10:49:51.328Z,61.60
2022-10-08T10:53:11.242Z,61.60
2022-10-08T10:56:20.551Z,61.50
2022-10-08T10:59:45.676Z,61.50
2022-10-08T11:02:59.013Z,61.50
2022-10-08T11:06:28.422Z,61.50
2022-10-08T11:09:44.662Z,61.40
2022-10-08T11:12:59.926Z,61.40
2022-10-08T11:16:22.987Z,61.30
2022-10-08T11:19:41.316Z,61.30
2022-10-08T11:22:56.046Z,61.30
2022-10-08T11:26:21.917Z,61.40
2022-10-08T11:29:36.986Z,61.20
2022-10-08T11:32:53.110Z,61.20
2022-10-08T11:36:15.746Z,61.20
2022-10-08T11:39:25.095Z,61.20
2022-10-08T11:42:47.465Z,61.00
2022-10-08T11:46:22.842Z,61.00
2022-10-08T11:49:58.673Z,60.90
2022-10-08T11:53:21.110Z,60.90
2022-10-08T11:56:28.898Z,61.10
2022-10-08T11:59:39.767Z,61.20
2022-10-08T12:02:54.679Z,61.50
2022-10-08T12:06:18.511Z,62.10
2022-10-08T12:09:32.938Z,62.60
2022-10-08T12:13:12.996Z,62.70
2022-10-08T12:16:47.641Z,62.20
2022-10-08T12:20:09.029Z,62.20
2022-10-08T12:23:44.579Z,62.10
2022-10-08T12:27:29.019Z,62.30
2022-10-08T12:30:54.563Z,62.40
2022-10-08T12:34:07.161Z,62.30
2022-10-08T12:37:24.722Z,62.70
2022-10-08T12:40:40.864Z,62.90
2022-10-08T12:43:55.621Z,63.00
2022-10-08T12:47:12.676Z,63.20
2022-10-08T12:50:42.723Z,63.10
2022-10-08T12:53:51.311Z,63.30
2022-10-08T12:57:03.881Z,63.30
2022-10-08T13:00:14.424Z,63.50
2022-10-08T13:03:21.958Z,63.30
2022-10-08T13:06:33.996Z,63.50
2022-10-08T13:09:41.702Z,63.50
2022-10-08T13:13:08.469Z,63.50
2022-10-08T13:16:17.663Z,63.50
2022-10-08T13:19:32.776Z,63.50
2022-10-08T13:22:40.649Z,63.50
2022-10-08T13:25:48.262Z,63.40
2022-10-08T13:29:32.291Z,63.40
2022-10-08T13:32:39.804Z,63.40
2022-10-08T13:35:53.344Z,63.40
2022-10-08T13:39:00.771Z,63.40
2022-10-08T13:42:12.596Z,63.40
2022-10-08T13:45:25.095Z,63.50
2022-10-08T13:48:32.521Z,63.50
2022-10-08T13:51:40.019Z,63.60
2022-10-08T13:54:47.759Z,63.60
2022-10-08T13:57:55.195Z,63.70
2022-10-08T14:01:05.774Z,63.80
2022-10-08T14:04:13.337Z,63.60
2022-10-08T14:07:26.039Z,63.60
2022-10-08T14:10:34.008Z,63.50
2022-10-08T14:13:41.573Z,63.40
2022-10-08T14:16:54.160Z,63.20
2022-10-08T14:20:02.064Z,63.10
2022-10-08T14:23:09.681Z,63.00
2022-10-08T14:26:15.895Z,62.90
2022-10-08T14:29:26.119Z,62.90
2022-10-08T14:32:36.569Z,62.80
2022-10-08T14:35:44.002Z,62.80
2022-10-08T14:38:51.551Z,62.80
2022-10-08T14:41:58.792Z,62.70
2022-10-08T14:45:06.812Z,62.60
2022-10-08T14:48:17.037Z,62.60
2022-10-08T14:51:24.390Z,62.70
2022-10-08T14:54:30.107Z,62.80
2022-10-08T14:57:37.596Z,62.90
2022-10-08T15:00:45.393Z,62.80
2022-10-08T15:03:55.714Z,62.80
2022-10-08T15:07:03.249Z,62.70
2022-10-08T15:10:11.888Z,62.70
2022-10-08T15:13:19.250Z,62.60
2022-10-08T15:16:26.866Z,62.60
2022-10-08T15:19:37.375Z,62.60
2022-10-08T15:22:45.278Z,62.60
2022-10-08T15:25:59.630Z,62.50
2022-10-08T15:29:10.219Z,62.50
2022-10-08T15:32:16.234Z,62.50
2022-10-08T15:35:26.531Z,62.50
2022-10-08T15:38:34.220Z,62.40
2022-10-08T15:41:45.590Z,62.50
2022-10-08T15:44:55.532Z,62.40
2022-10-08T15:48:02.865Z,62.50
2022-10-08T15:51:11.478Z,62.50
2022-10-08T15:54:19.223Z,62.60
2022-10-08T15:57:26.738Z,62.60
2022-10-08T16:00:37.976Z,62.60
2022-10-08T16:03:45.992Z,62.60
2022-10-08T16:06:56.925Z,62.70
2022-10-08T16:10:07.654Z,62.70
2022-10-08T16:13:15.688Z,62.70
2022-10-08T16:16:23.670Z,62.70
2022-10-08T16:19:31.262Z,62.70
2022-10-08T16:22:41.560Z,62.70
2022-10-08T16:25:51.852Z,62.70
2022-10-08T16:29:02.168Z,62.70
2022-10-08T16:32:11.555Z,62.70
2022-10-08T16:35:19.109Z,62.80
2022-10-08T16:38:32.418Z,62.60
2022-10-08T16:41:40.380Z,62.50
2022-10-08T16:44:47.736Z,62.60
2022-10-08T16:47:55.365Z,62.60
2022-10-08T16:51:06.089Z,62.60
2022-10-08T16:54:18.809Z,62.60
2022-10-08T16:57:26.317Z,62.70
2022-10-08T17:00:34.333Z,62.70
2022-10-08T17:03:41.904Z,62.70
2022-10-08T17:06:49.924Z,62.50
2022-10-08T17:10:00.157Z,62.40
2022-10-08T17:13:07.660Z,62.50
2022-10-08T17:16:16.251Z,62.50
2022-10-08T17:19:23.821Z,62.40
2022-10-08T17:22:31.326Z,62.50
2022-10-08T17:25:41.774Z,62.40
2022-10-08T17:28:51.306Z,62.60
2022-10-08T17:32:03.386Z,62.40
2022-10-08T17:35:14.345Z,62.50
2022-10-08T17:38:22.212Z,62.40
2022-10-08T17:41:32.014Z,62.40
2022-10-08T17:44:39.402Z,62.30
2022-10-08T17:47:46.862Z,62.70
2022-10-08T17:50:54.386Z,62.50
2022-10-08T17:54:03.817Z,62.60
2022-10-08T17:57:14.700Z,62.60
2022-10-08T18:00:22.684Z,62.70
2022-10-08T18:03:30.312Z,62.90
2022-10-08T18:06:39.137Z,63.20
2022-10-08T18:09:46.522Z,63.40
2022-10-08T18:12:56.769Z,63.80
2022-10-08T18:16:08.385Z,64.50
2022-10-08T18:19:16.298Z,65.70
2022-10-08T18:22:26.757Z,66.00
2022-10-08T18:25:37.970Z,66.30
2022-10-08T18:28:48.215Z,65.60
2022-10-08T18:31:55.861Z,65.70
2022-10-08T18:35:01.912Z,65.70
2022-10-08T18:38:10.252Z,65.50
2022-10-08T18:41:20.902Z,65.20
2022-10-08T18:44:36.839Z,65.20
2022-10-08T18:47:45.564Z,65.20
2022-10-08T18:50:54.782Z,65.10
2022-10-08T18:54:05.168Z,64.90
2022-10-08T18:57:13.924Z,65.00
2022-10-08T19:00:25.279Z,65.00
2022-10-08T19:03:31.164Z,65.10
2022-10-08T19:06:42.664Z,65.00
2022-10-08T19:09:51.001Z,64.90
2022-10-08T19:12:59.055Z,64.80
2022-10-08T19:16:14.138Z,64.70
2022-10-08T19:19:32.399Z,64.70
2022-10-08T19:22:41.181Z,64.60
2022-10-08T19:25:58.303Z,64.50
2022-10-08T19:29:04.363Z,64.50
2022-10-08T19:32:15.397Z,64.40
2022-10-08T19:35:26.054Z,64.30
2022-10-08T19:38:42.784Z,64.30
2022-10-08T19:42:02.469Z,64.20
2022-10-08T19:45:18.428Z,63.70
2022-10-08T19:48:44.662Z,62.00
2022-10-08T19:52:02.010Z,61.90
2022-10-08T19:55:17.559Z,61.90
2022-10-08T19:58:25.855Z,62.20
2022-10-08T20:01:35.719Z,61.90
2022-10-08T20:04:46.306Z,61.90
2022-10-08T20:07:56.577Z,62.90
2022-10-08T20:11:07.098Z,62.90
2022-10-08T20:14:23.887Z,63.10
2022-10-08T20:17:45.317Z,63.20
2022-10-08T20:21:16.586Z,63.40
2022-10-08T20:24:30.517Z,63.50
2022-10-08T20:27:44.327Z,63.60
2022-10-08T20:31:02.076Z,63.60
2022-10-08T20:34:18.909Z,63.50
2022-10-08T20:37:36.758Z,63.50
2022-10-08T20:40:50.495Z,63.50
2022-10-08T20:44:09.712Z,63.50
2022-10-08T20:47:33.650Z,63.50
2022-10-08T20:50:47.467Z,63.50
2022-10-08T20:54:01.085Z,63.40
2022-10-08T20:57:10.437Z,63.40
2022-10-08T21:00:18.749Z,63.40
2022-10-08T21:03:26.878Z,63.40
2022-10-08T21:06:41.137Z,63.40
2022-10-08T21:09:52.861Z,63.40
2022-10-08T21:13:00.669Z,63.40
2022-10-08T21:16:12.615Z,63.40
2022-10-08T21:19:22.252Z,63.30
2022-10-08T21:22:30.753Z,63.10
2022-10-08T21:25:40.988Z,63.00
2022-10-08T21:28:50.702Z,63.10
2022-10-08T21:31:56.316Z,63.10
2022-10-08T21:35:03.742Z,63.20
2022-10-08T21:38:11.356Z,63.00
2022-10-08T21:41:21.086Z,63.00
2022-10-08T21:44:28.774Z,63.00
2022-10-08T21:47:36.026Z,63.00
2022-10-08T21:50:43.420Z,62.90
2022-10-08T21:53:52.464Z,62.80
2022-10-08T21:57:02.760Z,62.70
2022-10-08T22:00:12.473Z,62.60
2022-10-08T22:03:20.629Z,62.50
2022-10-08T22:06:28.872Z,62.50
2022-10-08T22:09:37.124Z,62.50
2022-10-08T22:12:47.496Z,62.50
2022-10-08T22:15:57.439Z,62.40
2022-10-08T22:19:05.582Z,62.30
2022-10-08T22:22:13.616Z,62.30
2022-10-08T22:25:21.155Z,62.30
2022-10-08T22:28:32.399Z,62.30
2022-10-08T22:31:40.953Z,62.30
2022-10-08T22:34:48.432Z,62.40
2022-10-08T22:37:55.665Z,62.40
2022-10-08T22:41:06.404Z,62.30
2022-10-08T22:44:16.442Z,62.30
2022-10-08T22:47:23.628Z,62.20
2022-10-08T22:50:31.084Z,62.10
2022-10-08T22:53:39.035Z,61.90
2022-10-08T22:56:46.403Z,61.90
2022-10-08T22:59:56.592Z,61.80
2022-10-08T23:03:04.238Z,61.60
2022-10-08T23:06:11.870Z,61.30
2022-10-08T23:09:19.254Z,60.90
2022-10-08T23:12:26.647Z,60.70
2022-10-08T23:15:37.004Z,60.60
2022-10-08T23:18:47.933Z,60.90
2022-10-08T23:21:55.310Z,61.00
2022-10-08T23:25:02.882Z,61.00
2022-10-08T23:28:10.203Z,61.00
2022-10-08T23:31:22.397Z,61.20
2022-10-08T23:34:29.662Z,60.80
2022-10-08T23:37:36.982Z,60.90
2022-10-08T23:40:44.385Z,60.90
2022-10-08T23:43:53.598Z,60.70
2022-10-08T23:47:03.615Z,60.50
2022-10-08T23:50:11.466Z,60.10
2022-10-08T23:53:18.808Z,60.60
2022-10-08T23:56:26.046Z,60.50
2022-10-08T23:59:33.541Z,60.60
